sensor_id;sensor_type;location;lat;lon;timestamp;P1;durP1;ratioP1;P2;durP2;ratioP2
12852;SDS011;6495;51.808;7.478;2023-06-22T00:00:35;11.63;;;7.78;;
12852;SDS011;6495;51.808;7.478;2023-06-22T00:03:04;9.77;;;7.35;;
12852;SDS011;6495;51.808;7.478;2023-06-22T00:05:32;14.07;;;7.65;;
12852;SDS011;6495;51.808;7.478;2023-06-22T00:08:02;10.07;;;7.68;;
12852;SDS011;6495;51.808;7.478;2023-06-22T00:10:32;10.35;;;7.30;;
12852;SDS011;6495;51.808;7.478;2023-06-22T00:13:00;11.48;;;8.00;;
12852;SDS011;6495;51.808;7.478;2023-06-22T00:15:28;8.95;;;7.15;;
12852;SDS011;6495;51.808;7.478;2023-06-22T00:17:56;10.52;;;7.88;;
12852;SDS011;6495;51.808;7.478;2023-06-22T00:20:27;9.05;;;7.70;;
12852;SDS011;6495;51.808;7.478;2023-06-22T00:22:58;15.82;;;7.90;;
12852;SDS011;6495;51.808;7.478;2023-06-22T00:25:27;13.27;;;8.38;;
12852;SDS011;6495;51.808;7.478;2023-06-22T00:27:55;10.07;;;8.85;;
12852;SDS011;6495;51.808;7.478;2023-06-22T00:30:26;10.45;;;8.27;;
12852;SDS011;6495;51.808;7.478;2023-06-22T00:32:59;12.27;;;7.80;;
12852;SDS011;6495;51.808;7.478;2023-06-22T00:35:29;12.13;;;8.07;;
12852;SDS011;6495;51.808;7.478;2023-06-22T00:37:58;10.20;;;7.50;;
12852;SDS011;6495;51.808;7.478;2023-06-22T00:40:28;11.95;;;7.93;;
12852;SDS011;6495;51.808;7.478;2023-06-22T00:42:58;9.70;;;8.02;;
12852;SDS011;6495;51.808;7.478;2023-06-22T00:45:28;12.77;;;9.07;;
12852;SDS011;6495;51.808;7.478;2023-06-22T00:47:57;12.20;;;8.80;;
12852;SDS011;6495;51.808;7.478;2023-06-22T00:50:27;10.80;;;8.70;;
12852;SDS011;6495;51.808;7.478;2023-06-22T00:53:01;9.88;;;8.27;;
12852;SDS011;6495;51.808;7.478;2023-06-22T00:55:36;14.07;;;8.68;;
12852;SDS011;6495;51.808;7.478;2023-06-22T00:58:09;12.82;;;8.45;;
12852;SDS011;6495;51.808;7.478;2023-06-22T01:00:40;11.13;;;7.97;;
12852;SDS011;6495;51.808;7.478;2023-06-22T01:03:09;8.65;;;7.32;;
12852;SDS011;6495;51.808;7.478;2023-06-22T01:05:39;10.65;;;8.57;;
12852;SDS011;6495;51.808;7.478;2023-06-22T01:08:16;11.05;;;8.38;;
12852;SDS011;6495;51.808;7.478;2023-06-22T01:11:05;13.50;;;8.43;;
12852;SDS011;6495;51.808;7.478;2023-06-22T01:13:40;10.73;;;8.10;;
12852;SDS011;6495;51.808;7.478;2023-06-22T01:16:29;11.27;;;8.45;;
12852;SDS011;6495;51.808;7.478;2023-06-22T01:19:00;11.77;;;8.88;;
12852;SDS011;6495;51.808;7.478;2023-06-22T01:21:43;12.82;;;9.18;;
12852;SDS011;6495;51.808;7.478;2023-06-22T01:24:15;11.90;;;8.30;;
12852;SDS011;6495;51.808;7.478;2023-06-22T01:26:54;11.00;;;7.88;;
12852;SDS011;6495;51.808;7.478;2023-06-22T01:29:34;10.70;;;8.15;;
12852;SDS011;6495;51.808;7.478;2023-06-22T01:32:06;10.05;;;8.00;;
12852;SDS011;6495;51.808;7.478;2023-06-22T01:34:36;10.82;;;7.93;;
12852;SDS011;6495;51.808;7.478;2023-06-22T01:37:07;10.90;;;7.97;;
12852;SDS011;6495;51.808;7.478;2023-06-22T01:39:36;10.30;;;8.10;;
12852;SDS011;6495;51.808;7.478;2023-06-22T01:42:04;11.25;;;9.02;;
12852;SDS011;6495;51.808;7.478;2023-06-22T01:44:35;12.57;;;8.65;;
12852;SDS011;6495;51.808;7.478;2023-06-22T01:47:08;10.70;;;8.30;;
12852;SDS011;6495;51.808;7.478;2023-06-22T01:49:37;11.80;;;9.07;;
12852;SDS011;6495;51.808;7.478;2023-06-22T01:52:05;11.90;;;8.73;;
12852;SDS011;6495;51.808;7.478;2023-06-22T01:54:34;10.88;;;8.30;;
12852;SDS011;6495;51.808;7.478;2023-06-22T01:57:05;12.63;;;8.65;;
12852;SDS011;6495;51.808;7.478;2023-06-22T01:59:36;13.93;;;9.05;;
12852;SDS011;6495;51.808;7.478;2023-06-22T02:02:20;10.70;;;9.02;;
12852;SDS011;6495;51.808;7.478;2023-06-22T02:04:56;13.55;;;9.05;;
12852;SDS011;6495;51.808;7.478;2023-06-22T02:07:31;11.70;;;8.50;;
12852;SDS011;6495;51.808;7.478;2023-06-22T02:10:12;13.15;;;8.65;;
12852;SDS011;6495;51.808;7.478;2023-06-22T02:12:44;12.63;;;10.02;;
12852;SDS011;6495;51.808;7.478;2023-06-22T02:15:15;13.68;;;10.00;;
12852;SDS011;6495;51.808;7.478;2023-06-22T02:17:45;11.68;;;9.07;;
12852;SDS011;6495;51.808;7.478;2023-06-22T02:20:15;11.40;;;9.27;;
12852;SDS011;6495;51.808;7.478;2023-06-22T02:22:43;13.07;;;8.65;;
12852;SDS011;6495;51.808;7.478;2023-06-22T02:25:12;12.77;;;8.98;;
12852;SDS011;6495;51.808;7.478;2023-06-22T02:27:40;10.27;;;8.80;;
12852;SDS011;6495;51.808;7.478;2023-06-22T02:30:09;12.32;;;8.85;;
12852;SDS011;6495;51.808;7.478;2023-06-22T02:32:39;13.30;;;9.05;;
12852;SDS011;6495;51.808;7.478;2023-06-22T02:35:09;11.05;;;9.25;;
12852;SDS011;6495;51.808;7.478;2023-06-22T02:37:37;12.82;;;10.02;;
12852;SDS011;6495;51.808;7.478;2023-06-22T02:40:08;10.75;;;9.30;;
12852;SDS011;6495;51.808;7.478;2023-06-22T02:42:39;11.90;;;9.20;;
12852;SDS011;6495;51.808;7.478;2023-06-22T02:45:08;11.80;;;9.23;;
12852;SDS011;6495;51.808;7.478;2023-06-22T02:47:37;12.95;;;10.10;;
12852;SDS011;6495;51.808;7.478;2023-06-22T02:50:07;13.18;;;10.05;;
12852;SDS011;6495;51.808;7.478;2023-06-22T02:52:36;13.55;;;10.57;;
12852;SDS011;6495;51.808;7.478;2023-06-22T02:55:06;13.88;;;10.18;;
12852;SDS011;6495;51.808;7.478;2023-06-22T02:57:35;13.38;;;10.45;;
12852;SDS011;6495;51.808;7.478;2023-06-22T03:00:04;15.20;;;10.98;;
12852;SDS011;6495;51.808;7.478;2023-06-22T03:02:45;15.68;;;11.27;;
12852;SDS011;6495;51.808;7.478;2023-06-22T03:05:16;13.55;;;10.52;;
12852;SDS011;6495;51.808;7.478;2023-06-22T03:07:46;17.05;;;11.63;;
12852;SDS011;6495;51.808;7.478;2023-06-22T03:10:15;14.45;;;10.82;;
12852;SDS011;6495;51.808;7.478;2023-06-22T03:12:43;13.55;;;10.27;;
12852;SDS011;6495;51.808;7.478;2023-06-22T03:15:12;15.40;;;11.50;;
12852;SDS011;6495;51.808;7.478;2023-06-22T03:17:41;15.88;;;10.48;;
12852;SDS011;6495;51.808;7.478;2023-06-22T03:20:10;15.50;;;12.25;;
12852;SDS011;6495;51.808;7.478;2023-06-22T03:22:41;14.25;;;10.52;;
12852;SDS011;6495;51.808;7.478;2023-06-22T03:25:10;15.35;;;11.00;;
12852;SDS011;6495;51.808;7.478;2023-06-22T03:27:42;14.15;;;10.70;;
12852;SDS011;6495;51.808;7.478;2023-06-22T03:30:11;16.52;;;11.05;;
12852;SDS011;6495;51.808;7.478;2023-06-22T03:32:40;13.35;;;10.15;;
12852;SDS011;6495;51.808;7.478;2023-06-22T03:35:09;13.65;;;9.65;;
12852;SDS011;6495;51.808;7.478;2023-06-22T03:37:39;14.88;;;10.45;;
12852;SDS011;6495;51.808;7.478;2023-06-22T03:40:09;14.82;;;10.55;;
12852;SDS011;6495;51.808;7.478;2023-06-22T03:42:39;11.77;;;9.43;;
12852;SDS011;6495;51.808;7.478;2023-06-22T03:45:09;16.08;;;10.85;;
12852;SDS011;6495;51.808;7.478;2023-06-22T03:47:37;13.52;;;9.95;;
12852;SDS011;6495;51.808;7.478;2023-06-22T03:50:06;15.98;;;10.27;;
12852;SDS011;6495;51.808;7.478;2023-06-22T03:52:35;13.23;;;10.05;;
12852;SDS011;6495;51.808;7.478;2023-06-22T03:55:06;12.95;;;10.35;;
12852;SDS011;6495;51.808;7.478;2023-06-22T03:57:35;12.60;;;10.25;;
12852;SDS011;6495;51.808;7.478;2023-06-22T04:00:04;10.05;;;8.88;;
12852;SDS011;6495;51.808;7.478;2023-06-22T04:02:40;12.05;;;10.05;;
12852;SDS011;6495;51.808;7.478;2023-06-22T04:05:09;11.95;;;9.80;;
12852;SDS011;6495;51.808;7.478;2023-06-22T04:07:37;11.05;;;9.07;;
12852;SDS011;6495;51.808;7.478;2023-06-22T04:10:08;14.98;;;10.35;;
12852;SDS011;6495;51.808;7.478;2023-06-22T04:12:39;14.20;;;10.95;;
12852;SDS011;6495;51.808;7.478;2023-06-22T04:15:07;16.80;;;10.77;;
12852;SDS011;6495;51.808;7.478;2023-06-22T04:17:38;13.57;;;10.07;;
12852;SDS011;6495;51.808;7.478;2023-06-22T04:20:08;14.82;;;11.30;;
12852;SDS011;6495;51.808;7.478;2023-06-22T04:22:39;15.80;;;10.07;;
12852;SDS011;6495;51.808;7.478;2023-06-22T04:25:13;15.88;;;10.32;;
12852;SDS011;6495;51.808;7.478;2023-06-22T04:27:42;14.02;;;11.05;;
12852;SDS011;6495;51.808;7.478;2023-06-22T04:30:11;15.43;;;10.43;;
12852;SDS011;6495;51.808;7.478;2023-06-22T04:32:41;13.63;;;10.38;;
12852;SDS011;6495;51.808;7.478;2023-06-22T04:35:22;14.73;;;10.52;;
12852;SDS011;6495;51.808;7.478;2023-06-22T04:37:52;14.45;;;10.38;;
12852;SDS011;6495;51.808;7.478;2023-06-22T04:40:23;12.18;;;9.57;;
12852;SDS011;6495;51.808;7.478;2023-06-22T04:42:52;14.00;;;10.45;;
12852;SDS011;6495;51.808;7.478;2023-06-22T04:45:20;12.88;;;9.68;;
12852;SDS011;6495;51.808;7.478;2023-06-22T04:47:48;15.02;;;9.93;;
12852;SDS011;6495;51.808;7.478;2023-06-22T04:50:17;15.88;;;9.57;;
12852;SDS011;6495;51.808;7.478;2023-06-22T04:52:48;15.32;;;9.30;;
12852;SDS011;6495;51.808;7.478;2023-06-22T04:55:16;14.63;;;9.63;;
12852;SDS011;6495;51.808;7.478;2023-06-22T04:57:48;12.43;;;9.77;;
12852;SDS011;6495;51.808;7.478;2023-06-22T05:00:16;12.70;;;9.10;;
12852;SDS011;6495;51.808;7.478;2023-06-22T05:02:49;11.65;;;9.25;;
12852;SDS011;6495;51.808;7.478;2023-06-22T05:05:24;13.32;;;9.13;;
12852;SDS011;6495;51.808;7.478;2023-06-22T05:07:52;12.60;;;9.55;;
12852;SDS011;6495;51.808;7.478;2023-06-22T05:10:26;12.27;;;9.35;;
12852;SDS011;6495;51.808;7.478;2023-06-22T05:12:56;14.00;;;9.05;;
12852;SDS011;6495;51.808;7.478;2023-06-22T05:15:24;12.98;;;10.05;;
12852;SDS011;6495;51.808;7.478;2023-06-22T05:17:56;15.50;;;9.77;;
12852;SDS011;6495;51.808;7.478;2023-06-22T05:20:25;12.30;;;9.85;;
12852;SDS011;6495;51.808;7.478;2023-06-22T05:22:53;12.60;;;9.43;;
12852;SDS011;6495;51.808;7.478;2023-06-22T05:25:22;14.00;;;9.55;;
12852;SDS011;6495;51.808;7.478;2023-06-22T05:27:50;14.38;;;9.82;;
12852;SDS011;6495;51.808;7.478;2023-06-22T05:30:19;13.40;;;10.23;;
12852;SDS011;6495;51.808;7.478;2023-06-22T05:32:47;14.25;;;10.85;;
12852;SDS011;6495;51.808;7.478;2023-06-22T05:35:16;12.48;;;9.93;;
12852;SDS011;6495;51.808;7.478;2023-06-22T05:37:44;15.15;;;10.43;;
12852;SDS011;6495;51.808;7.478;2023-06-22T05:40:12;13.25;;;10.02;;
12852;SDS011;6495;51.808;7.478;2023-06-22T05:42:40;13.10;;;10.35;;
12852;SDS011;6495;51.808;7.478;2023-06-22T05:45:09;15.55;;;10.15;;
12852;SDS011;6495;51.808;7.478;2023-06-22T05:47:38;12.77;;;9.50;;
12852;SDS011;6495;51.808;7.478;2023-06-22T05:50:07;11.40;;;9.27;;
12852;SDS011;6495;51.808;7.478;2023-06-22T05:52:39;11.15;;;9.65;;
12852;SDS011;6495;51.808;7.478;2023-06-22T05:55:07;10.85;;;8.77;;
12852;SDS011;6495;51.808;7.478;2023-06-22T05:57:36;12.52;;;9.93;;
12852;SDS011;6495;51.808;7.478;2023-06-22T06:00:05;10.98;;;9.32;;
12852;SDS011;6495;51.808;7.478;2023-06-22T06:02:39;12.77;;;9.35;;
12852;SDS011;6495;51.808;7.478;2023-06-22T06:05:10;13.52;;;9.95;;
12852;SDS011;6495;51.808;7.478;2023-06-22T06:07:40;12.13;;;9.85;;
12852;SDS011;6495;51.808;7.478;2023-06-22T06:10:08;11.60;;;9.30;;
12852;SDS011;6495;51.808;7.478;2023-06-22T06:12:37;13.05;;;9.10;;
12852;SDS011;6495;51.808;7.478;2023-06-22T06:15:06;13.80;;;9.73;;
12852;SDS011;6495;51.808;7.478;2023-06-22T06:17:45;13.40;;;9.40;;
12852;SDS011;6495;51.808;7.478;2023-06-22T06:20:14;11.57;;;8.75;;
12852;SDS011;6495;51.808;7.478;2023-06-22T06:22:43;11.55;;;8.60;;
12852;SDS011;6495;51.808;7.478;2023-06-22T06:25:11;11.80;;;7.45;;
12852;SDS011;6495;51.808;7.478;2023-06-22T06:27:42;12.10;;;8.55;;
12852;SDS011;6495;51.808;7.478;2023-06-22T06:30:11;14.63;;;9.02;;
12852;SDS011;6495;51.808;7.478;2023-06-22T06:32:41;11.00;;;8.32;;
12852;SDS011;6495;51.808;7.478;2023-06-22T06:35:13;12.45;;;8.95;;
12852;SDS011;6495;51.808;7.478;2023-06-22T06:37:43;11.65;;;8.60;;
12852;SDS011;6495;51.808;7.478;2023-06-22T06:40:16;12.48;;;9.50;;
12852;SDS011;6495;51.808;7.478;2023-06-22T06:42:46;11.30;;;8.30;;
12852;SDS011;6495;51.808;7.478;2023-06-22T06:45:17;10.43;;;8.35;;
12852;SDS011;6495;51.808;7.478;2023-06-22T06:47:49;11.85;;;9.35;;
12852;SDS011;6495;51.808;7.478;2023-06-22T06:50:19;14.05;;;9.75;;
12852;SDS011;6495;51.808;7.478;2023-06-22T06:52:48;11.65;;;8.93;;
12852;SDS011;6495;51.808;7.478;2023-06-22T06:55:17;13.02;;;9.48;;
12852;SDS011;6495;51.808;7.478;2023-06-22T06:57:46;14.80;;;10.05;;
12852;SDS011;6495;51.808;7.478;2023-06-22T07:00:16;10.88;;;9.10;;
12852;SDS011;6495;51.808;7.478;2023-06-22T07:02:46;12.75;;;10.15;;
12852;SDS011;6495;51.808;7.478;2023-06-22T07:05:15;12.70;;;10.25;;
12852;SDS011;6495;51.808;7.478;2023-06-22T07:07:45;13.15;;;9.52;;
12852;SDS011;6495;51.808;7.478;2023-06-22T07:10:13;16.17;;;10.02;;
12852;SDS011;6495;51.808;7.478;2023-06-22T07:12:42;14.07;;;10.00;;
12852;SDS011;6495;51.808;7.478;2023-06-22T07:15:10;14.65;;;10.55;;
12852;SDS011;6495;51.808;7.478;2023-06-22T07:17:39;16.75;;;11.32;;
12852;SDS011;6495;51.808;7.478;2023-06-22T07:20:08;14.70;;;10.52;;
12852;SDS011;6495;51.808;7.478;2023-06-22T07:22:39;14.35;;;9.73;;
12852;SDS011;6495;51.808;7.478;2023-06-22T07:25:10;13.93;;;10.27;;
12852;SDS011;6495;51.808;7.478;2023-06-22T07:27:43;16.10;;;10.35;;
12852;SDS011;6495;51.808;7.478;2023-06-22T07:30:23;11.45;;;9.30;;
12852;SDS011;6495;51.808;7.478;2023-06-22T07:32:52;15.05;;;10.48;;
12852;SDS011;6495;51.808;7.478;2023-06-22T07:35:20;12.35;;;9.63;;
12852;SDS011;6495;51.808;7.478;2023-06-22T07:37:49;13.27;;;9.55;;
12852;SDS011;6495;51.808;7.478;2023-06-22T07:40:18;14.38;;;9.80;;
12852;SDS011;6495;51.808;7.478;2023-06-22T07:42:46;14.63;;;10.50;;
12852;SDS011;6495;51.808;7.478;2023-06-22T07:45:18;12.77;;;10.50;;
12852;SDS011;6495;51.808;7.478;2023-06-22T07:47:46;13.13;;;10.27;;
12852;SDS011;6495;51.808;7.478;2023-06-22T07:50:14;14.27;;;11.02;;
12852;SDS011;6495;51.808;7.478;2023-06-22T07:52:43;15.55;;;10.35;;
12852;SDS011;6495;51.808;7.478;2023-06-22T07:55:11;13.57;;;10.65;;
12852;SDS011;6495;51.808;7.478;2023-06-22T07:57:40;12.00;;;9.30;;
12852;SDS011;6495;51.808;7.478;2023-06-22T08:00:09;14.18;;;9.88;;
12852;SDS011;6495;51.808;7.478;2023-06-22T08:02:42;12.70;;;10.38;;
12852;SDS011;6495;51.808;7.478;2023-06-22T08:05:13;16.40;;;10.88;;
12852;SDS011;6495;51.808;7.478;2023-06-22T08:07:48;12.70;;;10.15;;
12852;SDS011;6495;51.808;7.478;2023-06-22T08:10:17;11.88;;;10.02;;
12852;SDS011;6495;51.808;7.478;2023-06-22T08:12:48;17.13;;;10.52;;
12852;SDS011;6495;51.808;7.478;2023-06-22T08:15:18;14.73;;;10.15;;
12852;SDS011;6495;51.808;7.478;2023-06-22T08:17:46;13.50;;;10.27;;
12852;SDS011;6495;51.808;7.478;2023-06-22T08:20:14;14.98;;;10.63;;
12852;SDS011;6495;51.808;7.478;2023-06-22T08:22:43;17.52;;;11.23;;
12852;SDS011;6495;51.808;7.478;2023-06-22T08:25:11;14.07;;;10.27;;
12852;SDS011;6495;51.808;7.478;2023-06-22T08:27:40;13.90;;;10.23;;
12852;SDS011;6495;51.808;7.478;2023-06-22T08:30:16;12.98;;;10.05;;
12852;SDS011;6495;51.808;7.478;2023-06-22T08:32:45;14.98;;;11.02;;
12852;SDS011;6495;51.808;7.478;2023-06-22T08:35:13;15.73;;;11.80;;
12852;SDS011;6495;51.808;7.478;2023-06-22T08:37:41;16.70;;;11.27;;
12852;SDS011;6495;51.808;7.478;2023-06-22T08:40:10;14.70;;;11.55;;
12852;SDS011;6495;51.808;7.478;2023-06-22T08:42:40;16.95;;;11.55;;
12852;SDS011;6495;51.808;7.478;2023-06-22T08:45:09;15.30;;;10.85;;
12852;SDS011;6495;51.808;7.478;2023-06-22T08:47:40;17.33;;;11.13;;
12852;SDS011;6495;51.808;7.478;2023-06-22T08:50:10;16.33;;;10.43;;
12852;SDS011;6495;51.808;7.478;2023-06-22T08:52:39;20.25;;;11.23;;
12852;SDS011;6495;51.808;7.478;2023-06-22T08:55:08;17.98;;;12.00;;
12852;SDS011;6495;51.808;7.478;2023-06-22T08:57:38;13.73;;;11.07;;
12852;SDS011;6495;51.808;7.478;2023-06-22T09:00:07;14.55;;;11.15;;
12852;SDS011;6495;51.808;7.478;2023-06-22T09:02:44;15.35;;;11.80;;
12852;SDS011;6495;51.808;7.478;2023-06-22T09:05:13;14.23;;;11.00;;
12852;SDS011;6495;51.808;7.478;2023-06-22T09:07:42;21.40;;;12.68;;
12852;SDS011;6495;51.808;7.478;2023-06-22T09:10:10;14.40;;;10.70;;
12852;SDS011;6495;51.808;7.478;2023-06-22T09:12:39;18.55;;;10.75;;
12852;SDS011;6495;51.808;7.478;2023-06-22T09:15:07;19.08;;;11.55;;
12852;SDS011;6495;51.808;7.478;2023-06-22T09:17:53;14.38;;;11.38;;
12852;SDS011;6495;51.808;7.478;2023-06-22T09:20:22;16.85;;;11.82;;
12852;SDS011;6495;51.808;7.478;2023-06-22T09:22:50;15.73;;;11.00;;
12852;SDS011;6495;51.808;7.478;2023-06-22T09:25:18;15.50;;;11.88;;
12852;SDS011;6495;51.808;7.478;2023-06-22T09:27:47;15.60;;;11.43;;
12852;SDS011;6495;51.808;7.478;2023-06-22T09:30:15;16.02;;;10.88;;
12852;SDS011;6495;51.808;7.478;2023-06-22T09:32:43;14.98;;;11.27;;
12852;SDS011;6495;51.808;7.478;2023-06-22T09:35:13;17.48;;;12.18;;
12852;SDS011;6495;51.808;7.478;2023-06-22T09:37:41;13.75;;;10.55;;
12852;SDS011;6495;51.808;7.478;2023-06-22T09:40:10;14.48;;;10.48;;
12852;SDS011;6495;51.808;7.478;2023-06-22T09:42:42;12.15;;;10.20;;
12852;SDS011;6495;51.808;7.478;2023-06-22T09:45:10;16.27;;;11.43;;
12852;SDS011;6495;51.808;7.478;2023-06-22T09:47:38;13.90;;;11.05;;
12852;SDS011;6495;51.808;7.478;2023-06-22T09:50:07;16.33;;;11.23;;
12852;SDS011;6495;51.808;7.478;2023-06-22T09:52:38;15.68;;;10.15;;
12852;SDS011;6495;51.808;7.478;2023-06-22T09:55:13;13.38;;;10.23;;
12852;SDS011;6495;51.808;7.478;2023-06-22T09:57:43;12.85;;;10.07;;
12852;SDS011;6495;51.808;7.478;2023-06-22T10:00:13;12.48;;;9.95;;
12852;SDS011;6495;51.808;7.478;2023-06-22T10:02:45;12.90;;;10.20;;
12852;SDS011;6495;51.808;7.478;2023-06-22T10:05:14;15.45;;;11.13;;
12852;SDS011;6495;51.808;7.478;2023-06-22T10:07:44;13.88;;;11.57;;
12852;SDS011;6495;51.808;7.478;2023-06-22T10:10:12;16.33;;;11.05;;
12852;SDS011;6495;51.808;7.478;2023-06-22T10:12:43;14.15;;;10.40;;
12852;SDS011;6495;51.808;7.478;2023-06-22T10:15:14;14.20;;;11.00;;
12852;SDS011;6495;51.808;7.478;2023-06-22T10:17:43;13.65;;;9.93;;
12852;SDS011;6495;51.808;7.478;2023-06-22T10:20:11;15.13;;;11.40;;
12852;SDS011;6495;51.808;7.478;2023-06-22T10:22:40;14.77;;;10.18;;
12852;SDS011;6495;51.808;7.478;2023-06-22T10:25:12;12.73;;;10.00;;
12852;SDS011;6495;51.808;7.478;2023-06-22T10:27:41;12.45;;;10.10;;
12852;SDS011;6495;51.808;7.478;2023-06-22T10:30:10;13.30;;;9.98;;
12852;SDS011;6495;51.808;7.478;2023-06-22T10:32:40;13.35;;;9.02;;
12852;SDS011;6495;51.808;7.478;2023-06-22T10:35:10;13.05;;;9.70;;
12852;SDS011;6495;51.808;7.478;2023-06-22T10:37:40;13.30;;;10.15;;
12852;SDS011;6495;51.808;7.478;2023-06-22T10:40:12;16.08;;;9.50;;
12852;SDS011;6495;51.808;7.478;2023-06-22T10:42:42;15.60;;;10.43;;
12852;SDS011;6495;51.808;7.478;2023-06-22T10:45:11;14.05;;;9.52;;
12852;SDS011;6495;51.808;7.478;2023-06-22T10:47:40;11.85;;;9.02;;
12852;SDS011;6495;51.808;7.478;2023-06-22T10:50:09;16.45;;;9.50;;
12852;SDS011;6495;51.808;7.478;2023-06-22T10:52:40;12.23;;;10.45;;
12852;SDS011;6495;51.808;7.478;2023-06-22T10:55:09;14.98;;;9.98;;
12852;SDS011;6495;51.808;7.478;2023-06-22T10:57:39;13.45;;;10.25;;
12852;SDS011;6495;51.808;7.478;2023-06-22T11:00:11;12.45;;;9.45;;
12852;SDS011;6495;51.808;7.478;2023-06-22T11:02:47;14.15;;;9.98;;
12852;SDS011;6495;51.808;7.478;2023-06-22T11:05:17;18.33;;;9.95;;
12852;SDS011;6495;51.808;7.478;2023-06-22T11:07:45;11.38;;;9.98;;
12852;SDS011;6495;51.808;7.478;2023-06-22T11:10:19;14.75;;;10.65;;
12852;SDS011;6495;51.808;7.478;2023-06-22T11:12:50;14.65;;;10.90;;
12852;SDS011;6495;51.808;7.478;2023-06-22T11:15:19;12.65;;;10.55;;
12852;SDS011;6495;51.808;7.478;2023-06-22T11:17:47;14.65;;;10.65;;
12852;SDS011;6495;51.808;7.478;2023-06-22T11:20:16;15.32;;;10.68;;
12852;SDS011;6495;51.808;7.478;2023-06-22T11:22:44;14.90;;;10.40;;
12852;SDS011;6495;51.808;7.478;2023-06-22T11:25:12;14.40;;;10.20;;
12852;SDS011;6495;51.808;7.478;2023-06-22T11:27:42;15.30;;;11.40;;
12852;SDS011;6495;51.808;7.478;2023-06-22T11:30:12;13.35;;;9.93;;
12852;SDS011;6495;51.808;7.478;2023-06-22T11:32:40;13.85;;;9.35;;
12852;SDS011;6495;51.808;7.478;2023-06-22T11:35:09;12.93;;;10.20;;
12852;SDS011;6495;51.808;7.478;2023-06-22T11:37:39;14.32;;;10.88;;
12852;SDS011;6495;51.808;7.478;2023-06-22T11:40:13;12.10;;;9.18;;
12852;SDS011;6495;51.808;7.478;2023-06-22T11:42:45;13.43;;;10.18;;
12852;SDS011;6495;51.808;7.478;2023-06-22T11:45:13;13.85;;;9.85;;
12852;SDS011;6495;51.808;7.478;2023-06-22T11:47:42;14.18;;;10.75;;
12852;SDS011;6495;51.808;7.478;2023-06-22T11:50:11;12.45;;;9.68;;
12852;SDS011;6495;51.808;7.478;2023-06-22T11:52:39;11.80;;;9.27;;
12852;SDS011;6495;51.808;7.478;2023-06-22T11:55:08;11.43;;;10.13;;
12852;SDS011;6495;51.808;7.478;2023-06-22T11:57:38;12.77;;;9.57;;
12852;SDS011;6495;51.808;7.478;2023-06-22T12:00:26;12.50;;;9.57;;
12852;SDS011;6495;51.808;7.478;2023-06-22T12:02:56;18.63;;;11.38;;
12852;SDS011;6495;51.808;7.478;2023-06-22T12:05:28;15.68;;;10.77;;
12852;SDS011;6495;51.808;7.478;2023-06-22T12:07:56;15.57;;;11.50;;
12852;SDS011;6495;51.808;7.478;2023-06-22T12:10:25;15.25;;;11.15;;
12852;SDS011;6495;51.808;7.478;2023-06-22T12:12:57;14.32;;;11.45;;
12852;SDS011;6495;51.808;7.478;2023-06-22T12:15:26;13.88;;;10.65;;
12852;SDS011;6495;51.808;7.478;2023-06-22T12:17:55;19.73;;;10.75;;
12852;SDS011;6495;51.808;7.478;2023-06-22T12:20:23;15.00;;;11.38;;
12852;SDS011;6495;51.808;7.478;2023-06-22T12:22:51;13.10;;;10.27;;
12852;SDS011;6495;51.808;7.478;2023-06-22T12:25:22;13.48;;;9.90;;
12852;SDS011;6495;51.808;7.478;2023-06-22T12:27:50;13.50;;;10.45;;
12852;SDS011;6495;51.808;7.478;2023-06-22T12:30:21;13.52;;;10.13;;
12852;SDS011;6495;51.808;7.478;2023-06-22T12:32:49;15.55;;;10.45;;
12852;SDS011;6495;51.808;7.478;2023-06-22T12:35:21;13.52;;;11.30;;
12852;SDS011;6495;51.808;7.478;2023-06-22T12:37:50;14.20;;;10.13;;
12852;SDS011;6495;51.808;7.478;2023-06-22T12:40:19;14.15;;;10.23;;
12852;SDS011;6495;51.808;7.478;2023-06-22T12:42:47;14.10;;;11.27;;
12852;SDS011;6495;51.808;7.478;2023-06-22T12:45:16;14.60;;;11.38;;
12852;SDS011;6495;51.808;7.478;2023-06-22T12:47:46;17.77;;;12.02;;
12852;SDS011;6495;51.808;7.478;2023-06-22T12:50:16;16.23;;;11.88;;
12852;SDS011;6495;51.808;7.478;2023-06-22T12:53:02;16.30;;;12.23;;
12852;SDS011;6495;51.808;7.478;2023-06-22T12:55:51;17.05;;;12.00;;
12852;SDS011;6495;51.808;7.478;2023-06-22T12:58:37;12.82;;;10.65;;
12852;SDS011;6495;51.808;7.478;2023-06-22T13:01:23;18.38;;;12.70;;
12852;SDS011;6495;51.808;7.478;2023-06-22T13:04:10;17.10;;;11.35;;
12852;SDS011;6495;51.808;7.478;2023-06-22T13:06:56;18.65;;;13.38;;
12852;SDS011;6495;51.808;7.478;2023-06-22T13:09:48;14.63;;;11.35;;
12852;SDS011;6495;51.808;7.478;2023-06-22T13:12:34;16.58;;;12.38;;
12852;SDS011;6495;51.808;7.478;2023-06-22T13:15:20;14.35;;;11.73;;
12852;SDS011;6495;51.808;7.478;2023-06-22T13:18:06;16.92;;;12.85;;
12852;SDS011;6495;51.808;7.478;2023-06-22T13:20:53;15.90;;;12.73;;
12852;SDS011;6495;51.808;7.478;2023-06-22T13:23:39;16.23;;;12.13;;
12852;SDS011;6495;51.808;7.478;2023-06-22T13:26:25;15.15;;;11.68;;
12852;SDS011;6495;51.808;7.478;2023-06-22T13:29:12;15.15;;;12.57;;
12852;SDS011;6495;51.808;7.478;2023-06-22T13:31:57;18.40;;;13.75;;
12852;SDS011;6495;51.808;7.478;2023-06-22T13:34:43;16.33;;;13.07;;
12852;SDS011;6495;51.808;7.478;2023-06-22T13:37:31;16.38;;;12.82;;
12852;SDS011;6495;51.808;7.478;2023-06-22T13:40:17;20.45;;;14.13;;
12852;SDS011;6495;51.808;7.478;2023-06-22T13:43:03;16.77;;;11.80;;
12852;SDS011;6495;51.808;7.478;2023-06-22T13:45:49;15.82;;;12.82;;
12852;SDS011;6495;51.808;7.478;2023-06-22T13:48:36;17.70;;;13.88;;
12852;SDS011;6495;51.808;7.478;2023-06-22T13:51:22;18.30;;;14.00;;
12852;SDS011;6495;51.808;7.478;2023-06-22T13:54:10;17.27;;;13.57;;
12852;SDS011;6495;51.808;7.478;2023-06-22T13:57:06;16.73;;;12.05;;
12852;SDS011;6495;51.808;7.478;2023-06-22T13:59:52;15.60;;;12.15;;
12852;SDS011;6495;51.808;7.478;2023-06-22T14:02:38;15.75;;;12.20;;
12852;SDS011;6495;51.808;7.478;2023-06-22T14:05:24;14.13;;;11.27;;
12852;SDS011;6495;51.808;7.478;2023-06-22T14:08:11;14.80;;;10.43;;
12852;SDS011;6495;51.808;7.478;2023-06-22T14:11:21;13.82;;;10.15;;
12852;SDS011;6495;51.808;7.478;2023-06-22T14:14:08;13.38;;;9.82;;
12852;SDS011;6495;51.808;7.478;2023-06-22T14:16:53;15.07;;;9.55;;
12852;SDS011;6495;51.808;7.478;2023-06-22T14:19:40;11.77;;;9.77;;
12852;SDS011;6495;51.808;7.478;2023-06-22T14:22:25;13.40;;;9.13;;
12852;SDS011;6495;51.808;7.478;2023-06-22T14:25:11;10.63;;;8.52;;
12852;SDS011;6495;51.808;7.478;2023-06-22T14:27:59;11.07;;;8.35;;
12852;SDS011;6495;51.808;7.478;2023-06-22T14:30:45;9.52;;;7.70;;
12852;SDS011;6495;51.808;7.478;2023-06-22T14:33:31;9.80;;;8.13;;
12852;SDS011;6495;51.808;7.478;2023-06-22T14:36:16;12.10;;;8.02;;
12852;SDS011;6495;51.808;7.478;2023-06-22T14:39:03;11.27;;;9.00;;
12852;SDS011;6495;51.808;7.478;2023-06-22T14:41:49;11.05;;;8.30;;
12852;SDS011;6495;51.808;7.478;2023-06-22T14:44:36;11.63;;;8.00;;
12852;SDS011;6495;51.808;7.478;2023-06-22T14:47:22;9.32;;;7.30;;
12852;SDS011;6495;51.808;7.478;2023-06-22T14:53:59;10.90;;;8.23;;
12852;SDS011;6495;51.808;7.478;2023-06-22T14:56:47;11.77;;;8.70;;
12852;SDS011;6495;51.808;7.478;2023-06-22T14:59:33;9.95;;;8.00;;
12852;SDS011;6495;51.808;7.478;2023-06-22T15:02:21;14.25;;;9.93;;
12852;SDS011;6495;51.808;7.478;2023-06-22T15:05:10;10.82;;;8.27;;
12852;SDS011;6495;51.808;7.478;2023-06-22T15:07:55;10.52;;;8.60;;
12852;SDS011;6495;51.808;7.478;2023-06-22T15:10:41;11.60;;;8.35;;
12852;SDS011;6495;51.808;7.478;2023-06-22T15:13:27;11.32;;;9.07;;
12852;SDS011;6495;51.808;7.478;2023-06-22T15:16:15;13.00;;;9.82;;